Time;durP1;ratioP1;P1;durP2;ratioP2;P2;SDS_P1;SDS_P2;PMS_P1;PMS_P2;Temp;Humidity;BMP_temperature;BMP_pressure;BME280_temperature;BME280_humidity;BME280_pressure;Samples;Min_cycle;Max_cycle;Signal;HPM_P1;HPM_P2
2023/04/07 00:01:26;;;;;;;39.70;23.50;;;;;;;3.64;58.52;100863.59;104734;1265;83419;-52
2023/04/07 00:05:15;;;;;;;42.20;24.60;;;;;;;3.62;58.85;100864.81;104634;1265;73925;-51
2023/04/07 00:08:57;;;;;;;43.50;22.90;;;;;;;3.60;59.30;100860.82;104715;1262;70062;-49
2023/04/07 00:12:37;;;;;;;;;;;;;;;;;;;;;
2023/04/07 00:16:09;;;;;;;44.60;25.20;;;;;;;3.54;59.51;100862.56;105159;1259;72887;-50
2023/04/07 00:19:44;;;;;;;44.80;24.30;;;;;;;3.54;59.68;100860.84;105090;1257;83417;-49
2023/04/07 00:23:32;;;;;;;37.40;23.70;;;;;;;3.56;60.09;100863.60;105049;1257;73755;-52
2023/04/07 00:27:22;;;;;;;42.30;24.70;;;;;;;3.57;60.42;100863.09;105080;1260;70003;-49
2023/04/07 00:30:45;;;;;;;41.00;24.70;;;;;;;3.62;60.41;100863.77;105055;1257;69855;-51
2023/04/07 00:34:36;;;;;;;40.70;23.10;;;;;;;3.68;60.59;100866.52;105110;1257;73448;-55
2023/04/07 00:38:16;;;;;;;;;;;;;;;;;;;;;
2023/04/07 00:42:07;;;;;;;;;;;;;;;;;;;;;
2023/04/07 00:45:56;;;;;;;;;;;;;;;;;;;;;
2023/04/07 00:49:46;;;;;;;45.60;25.50;;;;;;;3.84;61.24;100857.52;105012;1257;69940;-51
2023/04/07 00:53:24;;;;;;;;;;;;;;;;;;;;;
2023/04/07 00:56:49;;;;;;;;;;;;;;;;;;;;;
2023/04/07 01:00:22;;;;;;;;;;;;;;;;;;;;;
2023/04/07 01:04:12;;;;;;;60.50;29.80;;;;;;;3.95;61.35;100840.02;105028;1256;70036;-49
2023/04/07 01:07:52;;;;;;;55.40;29.10;;;;;;;3.99;61.22;100839.14;105065;1260;69177;-49
2023/04/07 01:11:16;;;;;;;;;;;;;;;;;;;;;
2023/04/07 01:14:46;;;;;;;50.70;27.70;;;;;;;4.02;61.48;100831.19;104934;1263;83276;-50
2023/04/07 01:18:38;;;;;;;49.50;25.70;;;;;;;4.01;61.58;100831.70;104889;1265;73759;-50
2023/04/07 01:22:13;;;;;;;43.10;26.00;;;;;;;3.99;61.96;100826.52;104316;1271;69836;-56
2023/04/07 01:25:50;;;;;;;;;;;;;;;;;;;;;
2023/04/07 01:29:13;;;;;;;40.50;24.40;;;;;;;3.95;62.60;100827.23;104145;1276;72383;-51
2023/04/07 01:32:46;;;;;;;39.20;23.30;;;;;;;3.93;62.66;100825.14;104174;1278;83358;-50
2023/04/07 01:36:17;;;;;;;31.70;20.90;;;;;;;3.92;62.95;100819.98;104049;1272;72472;-51
2023/04/07 01:40:07;;;;;;;;;;;;;;;;;;;;;
2023/04/07 01:43:31;;;;;;;35.20;20.90;;;;;;;3.94;63.57;100813.91;103891;1272;69871;-53
2023/04/07 01:50:54;;;;;;;29.30;17.90;;;;;;;3.96;64.11;100804.91;103458;1282;81477;-50
2023/04/07 01:54:29;;;;;;;;;;;;;;;;;;;;;
2023/04/07 01:58:19;;;;;;;36.00;19.00;;;;;;;3.96;64.56;100805.09;104310;1270;70076;-51
2023/04/07 02:01:58;;;;;;;;;;;;;;;;;;;;;
2023/04/07 02:05:49;;;;;;;;;;;;;;;;;;;;;
2023/04/07 02:09:17;;;;;;;;;;;;;;;;;;;;;
2023/04/07 02:12:57;;;;;;;29.60;18.50;;;;;;;3.91;65.78;100799.92;104555;1260;73133;-54
2023/04/07 02:16:32;;;;;;;33.10;18.60;;;;;;;3.88;66.09;100795.95;104716;1263;70001;-50
2023/04/07 02:20:14;;;;;;;25.40;16.60;;;;;;;3.87;66.27;100790.42;104715;1263;70047;-50
2023/04/07 02:23:57;;;;;;;29.20;16.20;;;;;;;3.88;66.40;100789.38;104670;1266;72255;-53
2023/04/07 02:27:44;;;;;;;;;;;;;;;;;;;;;
2023/04/07 02:31:16;;;;;;;19.30;11.80;;;;;;;3.94;66.65;100786.94;104677;1262;72671;-50
2023/04/07 02:35:05;;;;;;;18.20;11.20;;;;;;;3.96;66.80;100782.96;104710;1262;69194;-51
2023/04/07 02:38:45;;;;;;;21.00;11.70;;;;;;;3.95;66.86;100784.69;104702;1260;71051;-52
2023/04/07 02:46:11;;;;;;;16.60;9.40;;;;;;;3.97;67.16;100776.56;104784;1264;83515;-50
2023/04/07 02:49:45;;;;;;;15.40;9.80;;;;;;;3.97;67.22;100771.03;104739;1262;73712;-52
2023/04/07 02:53:24;;;;;;;15.30;9.40;;;;;;;3.95;67.16;100769.30;104678;1267;70074;-54
2023/04/07 02:56:29;;;;;;;;;;;;;;;;;;;;;
2023/04/07 03:00:01;;;;;;;;;;;;;;;;;;;;;
2023/04/07 03:03:43;;;;;;;;;;;;;;;;;;;;;
2023/04/07 03:07:23;;;;;;;14.50;9.20;;;;;;;3.94;67.22;100757.90;104942;1259;73975;-51
2023/04/07 03:10:35;;;;;;;13.60;9.00;;;;;;;3.94;67.66;100751.84;104892;1258;69769;-53
2023/04/07 03:14:01;;;;;;;14.40;8.60;;;;;;;3.97;67.39;100749.94;104998;1258;69901;-52
2023/04/07 03:17:38;;;;;;;18.00;10.00;;;;;;;3.95;67.47;100745.79;105015;1260;73131;-55
2023/04/07 03:21:30;;;;;;;14.20;9.00;;;;;;;3.95;67.55;100745.97;105073;1259;82512;-52
2023/04/07 03:24:52;;;;;;;;;;;;;;;;;;;;;
2023/04/07 03:28:21;;;;;;;;;;;;;;;;;;;;;
2023/04/07 03:31:56;;;;;;;18.70;10.40;;;;;;;3.96;67.97;100745.27;104982;1259;69146;-52
2023/04/07 03:35:43;;;;;;;;;;;;;;;;;;;;;
2023/04/07 03:39:36;;;;;;;18.60;10.10;;;;;;;3.95;68.19;100743.71;104663;1266;83169;-53
2023/04/07 03:42:29;;;;;;;17.70;11.10;;;;;;;3.93;68.15;100747.00;104595;1262;73813;-53
2023/04/07 03:46:13;;;;;;;19.50;11.80;;;;;;;3.92;68.36;100746.66;104792;1265;69256;-55
2023/04/07 03:50:02;;;;;;;21.90;10.80;;;;;;;3.93;68.33;100741.30;104650;1263;69217;-54
2023/04/07 03:53:20;;;;;;;22.90;12.60;;;;;;;3.95;68.31;100740.08;104581;1262;74078;-54
2023/04/07 03:56:56;;;;;;;17.20;10.60;;;;;;;3.98;68.44;100744.05;104612;1266;83077;-52
2023/04/07 04:00:34;;;;;;;;;;;;;;;;;;;;;
2023/04/07 04:04:09;;;;;;;16.70;11.40;;;;;;;4.03;68.91;100744.02;104841;1265;70263;-54
2023/04/07 04:07:40;;;;;;;19.60;11.40;;;;;;;4.02;69.00;100743.34;104903;1263;70026;-53
2023/04/07 04:11:24;;;;;;;16.70;9.30;;;;;;;3.99;69.17;100747.33;105140;1258;74045;-54
2023/04/07 04:14:20;;;;;;;12.20;8.20;;;;;;;3.97;69.24;100750.63;105085;1259;83241;-53
2023/04/07 04:17:36;;;;;;;13.80;8.80;;;;;;;3.94;69.37;100754.45;104999;1258;73714;-52
2023/04/07 04:28:48;;;;;;;11.70;7.00;;;;;;;3.78;70.12;100762.97;104998;1263;72074;-55
2023/04/07 04:32:14;;;;;;;15.70;8.00;;;;;;;3.73;70.13;100763.67;104935;1258;82372;-52
2023/04/07 04:35:50;;;;;;;14.90;8.30;;;;;;;3.69;70.31;100769.23;104956;1264;72929;-51
2023/04/07 04:39:31;;;;;;;29.70;15.60;;;;;;;3.66;70.71;100766.30;105106;1258;69074;-49
2023/04/07 04:46:48;;;;;;;16.20;9.80;;;;;;;3.63;70.96;100762.50;104991;1257;73913;-53
2023/04/07 04:50:24;;;;;;;;;;;;;;;;;;;;;
2023/04/07 04:54:05;;;;;;;11.20;7.10;;;;;;;3.59;71.64;100764.23;105001;1259;74151;-48
2023/04/07 04:57:38;;;;;;;22.10;11.40;;;;;;;3.54;71.47;100763.38;105099;1258;69769;-57
2023/04/07 05:01:02;;;;;;;21.60;11.00;;;;;;;3.50;71.78;100763.58;104967;1257;69835;-51
2023/04/07 05:04:24;;;;;;;;;;;;;;;3.47;71.81;100763.05;104665;1266;73963;-48
2023/04/07 05:08:14;;;;;;;11.40;6.20;;;;;;;3.46;72.07;100765.81;104701;1264;83567;-52
2023/04/07 05:11:56;;;;;;;13.50;7.40;;;;;;;3.45;72.25;100763.58;104551;1263;73864;-54
2023/04/07 05:15:31;;;;;;;13.10;6.20;;;;;;;3.42;72.46;100764.97;104774;1268;69979;-54
2023/04/07 05:18:57;;;;;;;10.80;6.50;;;;;;;3.42;72.53;100768.24;104705;1263;69837;-51
2023/04/07 05:22:45;;;;;;;10.00;5.90;;;;;;;3.45;72.82;100769.28;104427;1268;73071;-52
2023/04/07 05:26:36;;;;;;;9.80;6.30;;;;;;;3.45;73.02;100770.48;104329;1272;83738;-51
2023/04/07 05:30:16;;;;;;;11.40;6.50;;;;;;;3.46;72.98;100769.45;104353;1268;73643;-48
2023/04/07 05:33:49;;;;;;;;;;;;;;;;;;;;;
2023/04/07 05:37:31;;;;;;;13.60;8.70;;;;;;;3.42;73.46;100774.12;104134;1269;69336;-52
2023/04/07 05:40:55;;;;;;;14.70;9.40;;;;;;;3.39;73.81;100770.33;104432;1271;72695;-56
2023/04/07 05:43:54;;;;;;;22.30;12.50;;;;;;;3.37;73.69;100767.56;104638;1266;83071;-49
2023/04/07 05:46:43;;;;;;;17.90;10.70;;;;;;;3.37;73.90;100769.98;104528;1261;73922;-49
2023/04/07 05:49:46;;;;;;;16.20;9.90;;;;;;;3.41;74.16;100773.61;104871;1262;69902;-52
2023/04/07 05:52:42;;;;;;;15.30;7.50;;;;;;;3.42;74.26;100766.17;104799;1267;70144;-47
2023/04/07 05:55:32;;;;;;;12.60;8.20;;;;;;;3.44;74.39;100767.04;105015;1258;74140;-47
2023/04/07 05:58:16;;;;;;;11.30;7.60;;;;;;;3.47;74.71;100765.30;105268;1261;83301;-51
2023/04/07 06:01:33;;;;;;;9.80;6.20;;;;;;;3.51;74.75;100766.34;105077;1259;72368;-50
2023/04/07 06:04:21;;;;;;;11.40;7.00;;;;;;;3.55;75.07;100765.64;105038;1261;70792;-51
2023/04/07 06:07:28;;;;;;;10.70;6.60;;;;;;;3.59;75.17;100765.62;105270;1258;69846;-49
2023/04/07 06:10:12;;;;;;;9.40;5.30;;;;;;;3.61;75.11;100765.80;105103;1261;73996;-49
2023/04/07 06:13:11;;;;;;;13.60;7.30;;;;;;;3.62;75.23;100768.55;105008;1259;83476;-49
2023/04/07 06:15:51;;;;;;;16.20;8.90;;;;;;;3.61;75.45;100771.84;105181;1259;73682;-48
2023/04/07 06:18:34;;;;;;;12.10;8.20;;;;;;;3.63;75.71;100774.25;105077;1259;69905;-50
2023/04/07 06:21:34;;;;;;;13.40;8.60;;;;;;;3.64;75.41;100774.08;105068;1261;70014;-46
2023/04/07 06:24:32;;;;;;;17.60;9.90;;;;;;;3.66;75.54;100770.96;105205;1258;74094;-49
2023/04/07 06:27:30;;;;;;;16.10;9.40;;;;;;;3.65;75.52;100767.33;105068;1261;82656;-46
2023/04/07 06:30:32;;;;;;;19.80;11.50;;;;;;;3.65;75.62;100767.52;105244;1261;72757;-49
2023/04/07 06:33:14;;;;;;;26.40;14.00;;;;;;;3.66;75.70;100766.46;105058;1261;70036;-49
2023/04/07 06:36:16;;;;;;;32.60;19.00;;;;;;;3.64;75.65;100769.23;105095;1259;69953;-49
2023/04/07 06:39:02;;;;;;;25.10;15.80;;;;;;;3.64;75.94;100773.04;105087;1258;74055;-49
2023/04/07 06:41:59;;;;;;;;;;;;;;;;;;;;;
2023/04/07 06:45:01;;;;;;;16.20;8.90;;;;;;;3.66;76.04;100770.27;105221;1259;73031;-47
2023/04/07 06:47:54;;;;;;;14.70;9.20;;;;;;;3.64;76.21;100772.69;105051;1259;69923;-47
2023/04/07 06:50:56;;;;;;;12.60;7.60;;;;;;;3.64;76.35;100771.48;105229;1257;70394;-47
2023/04/07 06:53:50;;;;;;;;;;;;;;;;;;;;;
2023/04/07 06:56:26;;;;;;;17.20;10.70;;;;;;;3.63;76.62;100769.58;105216;1261;83484;-51
2023/04/07 06:59:17;;;;;;;14.30;9.90;;;;;;;3.62;76.54;100770.27;105171;1262;73812;-49
2023/04/07 07:02:06;;;;;;;;;;;;;;;;;;;;;
2023/04/07 07:04:58;;;;;;;;;;;;;;;;;;;;;
2023/04/07 07:08:09;;;;;;;12.70;7.80;;;;;;;3.57;76.84;100765.63;105054;1258;73016;-49
2023/04/07 07:11:03;;;;;;;16.20;9.50;;;;;;;3.54;76.99;100762.69;105026;1259;83307;-48
2023/04/07 07:13:54;;;;;;;23.20;14.50;;;;;;;3.53;77.03;100761.14;105104;1261;72702;-48
2023/04/07 07:16:42;;;;;;;29.20;16.20;;;;;;;3.54;77.10;100761.31;105075;1261;70007;-48
2023/04/07 07:19:19;;;;;;;53.10;27.50;;;;;;;3.60;77.45;100763.89;105175;1261;69965;-48
2023/04/07 07:22:06;;;;;;;;;;;;;;;;;;;;;
2023/04/07 07:25:10;;;;;;;51.20;22.90;;;;;;;3.69;77.69;100766.30;105216;1257;83840;-48
2023/04/07 07:28:01;;;;;;;54.50;19.00;;;;;;;3.74;77.59;100764.36;105362;1259;71698;-49
2023/04/07 07:30:38;;;;;;;77.60;25.90;;;;;;;3.74;77.44;100767.66;105071;1261;70020;-50
2023/04/07 07:33:26;;;;;;;76.40;27.60;;;;;;;3.74;77.80;100773.02;105074;1260;69931;-48
2023/04/07 07:36:13;;;;;;;102.10;33.50;;;;;;;3.75;77.78;100773.17;105034;1259;74053;-48
2023/04/07 07:38:58;;;;;;;76.90;28.50;;;;;;;3.76;78.04;100776.11;105110;1261;83410;-48
2023/04/07 07:41:49;;;;;;;40.60;16.00;;;;;;;3.78;78.43;100778.00;105081;1259;73680;-48
2023/04/07 07:44:35;;;;;;;28.70;12.30;;;;;;;3.78;78.31;100783.19;105071;1261;70025;-50
2023/04/07 07:47:36;;;;;;;41.10;18.30;;;;;;;3.76;78.40;100784.41;105064;1257;69896;-49
2023/04/07 07:51:27;;;;;;;14.50;7.90;;;;;;;3.80;78.63;100784.74;105090;1256;73043;-52
2023/04/07 07:55:16;;;;;;;30.00;15.00;;;;;;;3.84;79.13;100788.19;105128;1261;82504;-49
2023/04/07 08:02:30;;;;;;;;;;;;;;;;;;;;;
2023/04/07 08:06:21;;;;;;;16.60;10.10;;;;;;;3.88;79.11;100783.33;104807;1263;69214;-54
2023/04/07 08:10:02;;;;;;;23.90;12.00;;;;;;;3.90;79.69;100782.82;105021;1259;74764;-53
2023/04/07 08:13:49;;;;;;;;;;;;;;;;;;;;;
2023/04/07 08:17:40;;;;;;;22.70;13.60;;;;;;;3.93;79.60;100786.44;104684;1262;74617;-52
2023/04/07 08:20:38;;;;;;;;;;;;;;;;;;;;;
2023/04/07 08:24:27;;;;;;;;;;;;;;;;;;;;;
2023/04/07 08:28:06;;;;;;;;;;;;;;;;;;;;;
2023/04/07 08:31:47;;;;;;;18.10;10.70;;;;;;;4.06;80.08;100786.20;104381;1266;82455;-53
2023/04/07 08:34:50;;;;;;;21.60;12.40;;;;;;;4.11;80.02;100786.88;104666;1263;73782;-53
2023/04/07 08:38:21;;;;;;;18.00;11.40;;;;;;;4.17;79.91;100783.21;104806;1266;69931;-57
2023/04/07 08:41:44;;;;;;;20.30;12.00;;;;;;;4.27;80.22;100783.00;104629;1265;69201;-49
2023/04/07 08:44:35;;;;;;;22.30;13.50;;;;;;;4.37;80.47;100780.34;104809;1266;72743;-49
2023/04/07 08:47:42;;;;;;;;;;;;;;;;;;;;;
2023/04/07 08:51:08;;;;;;;;;;;;;;;;;;;;;
2023/04/07 08:55:01;;;;;;;43.30;25.80;;;;;;;4.54;79.83;100790.45;105017;1256;69170;-50
2023/04/07 08:58:44;;;;;;;28.40;15.90;;;;;;;4.61;79.96;100786.78;104969;1259;69217;-52
2023/04/07 09:02:11;;;;;;;17.20;11.70;;;;;;;4.75;80.04;100787.03;100882;1261;73143;-52
2023/04/07 09:06:00;;;;;;;27.60;15.00;;;;;;;4.83;79.76;100786.45;105030;1259;73653;-53
2023/04/07 09:09:49;;;;;;;20.00;12.10;;;;;;;4.89;79.30;100788.66;105066;1259;70403;-54
2023/04/07 09:13:39;;;;;;;22.10;15.60;;;;;;;4.91;79.29;100785.88;104951;1259;69137;-53
2023/04/07 09:17:13;;;;;;;;;;;;;;;;;;;;;
2023/04/07 09:20:31;;;;;;;;;;;;;;;;;;;;;
2023/04/07 09:24:11;;;;;;;22.00;15.80;;;;;;;5.02;79.42;100777.31;105108;1261;72723;-56
2023/04/07 09:27:50;;;;;;;;;;;;;;;;;;;;;
2023/04/07 09:31:39;;;;;;;19.70;13.40;;;;;;;5.05;79.16;100773.64;104748;1266;69083;-56
2023/04/07 09:35:29;;;;;;;15.40;11.20;;;;;;;5.10;79.33;100769.09;104703;1267;73120;-50
2023/04/07 09:39:09;;;;;;;18.00;12.30;;;;;;;5.10;78.79;100769.80;104658;1262;82663;-54
2023/04/07 09:42:36;;;;;;;;;;;;;;;;;;;;;
2023/04/07 09:46:25;;;;;;;;;;;;;;;;;;;;;
2023/04/07 09:50:05;;;;;;;;;;;;;;;;;;;;;
2023/04/07 09:53:57;;;;;;;20.50;13.60;;;;;;;5.01;79.42;100765.53;104317;1273;74446;-55
2023/04/07 09:57:19;;;;;;;18.20;12.00;;;;;;;4.98;79.52;100767.47;104239;1274;82699;-50
2023/04/07 10:00:56;;;;;;;;;;;;;;;;;;;;;
2023/04/07 10:04:16;;;;;;;;;;;;;;;;;;;;;
2023/04/07 10:07:43;;;;;;;19.40;14.10;;;;;;;5.01;79.72;100770.89;104403;1265;69419;-51
2023/04/07 10:11:21;;;;;;;23.10;14.10;;;;;;;5.03;79.90;100769.16;104175;1274;74207;-52
2023/04/07 10:15:07;;;;;;;17.00;11.90;;;;;;;5.05;80.04;100771.73;104042;1277;82753;-50
2023/04/07 10:18:01;;;;;;;;;;;;;;;5.04;79.45;100772.61;104164;1275;72894;-53
2023/04/07 10:21:51;;;;;;;18.60;12.80;;;;;;;4.96;79.58;100773.20;104263;1274;70034;-56
2023/04/07 10:25:18;;;;;;;18.40;13.10;;;;;;;4.92;79.83;100772.37;104135;1273;70228;-50
2023/04/07 10:28:59;;;;;;;19.60;12.10;;;;;;;4.87;79.89;100775.52;104313;1271;74072;-53
2023/04/07 10:32:18;;;;;;;17.30;12.40;;;;;;;4.79;80.14;100776.96;104727;1266;84656;-56
2023/04/07 10:35:57;;;;;;;;;;;;;;;;;;;;;
2023/04/07 10:39:38;;;;;;;;;;;;;;;;;;;;;
2023/04/07 10:43:38;;;;;;;18.30;11.70;;;;;;;4.72;80.94;100771.98;104572;1267;70004;-52
2023/04/07 10:47:27;;;;;;;20.40;13.20;;;;;;;4.76;81.20;100774.73;104575;1268;74328;-52
2023/04/07 10:51:19;;;;;;;18.80;12.50;;;;;;;4.77;81.23;100779.06;104736;1267;83808;-52
2023/04/07 10:55:00;;;;;;;15.40;10.80;;;;;;;4.76;81.47;100780.63;104534;1268;73029;-50
2023/04/07 10:58:52;;;;;;;;;;;;;;;;;;;;;
2023/04/07 11:02:00;;;;;;;17.60;11.60;;;;;;;4.76;81.55;100775.08;104684;1266;70060;-52
2023/04/07 11:04:47;;;;;;;;;;;;;;;;;;;;;
2023/04/07 11:08:35;;;;;;;17.60;12.00;;;;;;;4.77;81.69;100775.42;104993;1263;83519;-54
2023/04/07 11:12:39;;;;;;;19.70;14.80;;;;;;;4.82;82.25;100776.94;104650;1264;72653;-53
2023/04/07 11:16:28;;;;;;;16.70;11.60;;;;;;;4.94;82.33;100776.85;104534;1268;69285;-50
2023/04/07 11:19:47;;;;;;;17.80;11.90;;;;;;;4.95;82.14;100776.66;104692;1262;69651;-51
2023/04/07 11:23:32;;;;;;;;;;;;;;;;;;;;;
2023/04/07 11:27:07;;;;;;;15.60;10.50;;;;;;;5.05;82.38;100771.39;104703;1266;84519;-57
2023/04/07 11:30:50;;;;;;;16.60;10.50;;;;;;;5.06;82.37;100769.47;104593;1266;73710;-55
2023/04/07 11:34:34;;;;;;;17.80;10.00;;;;;;;5.04;82.22;100768.80;104592;1266;69213;-52
2023/04/07 11:38:06;;;;;;;15.10;10.00;;;;;;;4.96;82.09;100767.67;104368;1269;69404;-54
2023/04/07 11:41:55;;;;;;;20.80;12.80;;;;;;;4.96;82.54;100765.92;104253;1273;74311;-52
2023/04/07 11:45:37;;;;;;;15.70;10.40;;;;;;;5.01;82.56;100758.08;104298;1273;83639;-53
2023/04/07 11:49:15;;;;;;;;;;;;;;;;;;;;;
2023/04/07 11:53:06;;;;;;;15.60;9.90;;;;;;;5.13;83.15;100757.99;104254;1284;69266;-54
2023/04/07 11:56:39;;;;;;;;;;;;;;;;;;;;;
2023/04/07 12:00:29;;;;;;;15.80;9.30;;;;;;;5.16;82.89;100752.59;104578;1271;72170;-52
2023/04/07 12:07:59;;;;;;;18.60;10.60;;;;;;;5.28;83.42;100752.46;104416;1270;73726;-51
2023/04/07 12:11:40;;;;;;;;;;;;;;;;;;;;;
2023/04/07 12:14:58;;;;;;;17.60;11.10;;;;;;;5.22;83.24;100749.23;104652;1275;70010;-50
2023/04/07 12:18:21;;;;;;;14.90;10.10;;;;;;;5.22;83.16;100746.13;105020;1266;73040;-52
2023/04/07 12:21:26;;;;;;;14.00;9.90;;;;;;;5.25;83.15;100747.30;104771;1264;82767;-51
2023/04/07 12:24:31;;;;;;;13.50;10.10;;;;;;;5.25;83.17;100746.62;104827;1273;73783;-50
2023/04/07 12:27:54;;;;;;;16.70;10.60;;;;;;;5.31;83.53;100746.02;104882;1267;70026;-53
2023/04/07 12:30:59;;;;;;;13.20;9.80;;;;;;;5.37;83.42;100748.56;104808;1274;69829;-50
2023/04/07 12:34:04;;;;;;;14.40;9.50;;;;;;;5.37;83.13;100750.13;104965;1263;74098;-50
2023/04/07 12:36:55;;;;;;;11.80;8.40;;;;;;;5.28;82.87;100750.56;104965;1271;82351;-51
2023/04/07 12:39:52;;;;;;;11.70;8.90;;;;;;;5.23;82.99;100750.61;105209;1258;74133;-48
2023/04/07 12:43:22;;;;;;;14.10;9.40;;;;;;;5.17;82.99;100745.30;105107;1262;69215;-50
2023/04/07 12:46:48;;;;;;;14.20;10.00;;;;;;;5.09;83.50;100747.45;105001;1262;71520;-53
2023/04/07 12:50:03;;;;;;;12.10;9.10;;;;;;;5.09;83.47;100744.16;105109;1262;73127;-52
2023/04/07 12:53:12;;;;;;;13.40;8.80;;;;;;;5.12;83.83;100747.77;105052;1258;83609;-49
2023/04/07 12:56:15;;;;;;;13.90;9.10;;;;;;;5.18;84.08;100741.30;104994;1258;73722;-50
2023/04/07 12:59:30;;;;;;;;;;;;;;;;;;;;;
2023/04/07 13:02:47;;;;;;;12.00;9.00;;;;;;;5.33;84.45;100742.55;104810;1260;69292;-52
2023/04/07 13:05:33;;;;;;;10.30;7.00;;;;;;;5.34;84.07;100740.46;104837;1265;72063;-50
2023/04/07 13:08:31;;;;;;;9.30;7.30;;;;;;;5.34;84.25;100739.94;104948;1267;83551;-51
2023/04/07 13:11:53;;;;;;;;;;;;;;;;;;;;;
2023/04/07 13:15:05;;;;;;;10.10;6.30;;;;;;;5.39;84.14;100740.58;104832;1266;70018;-50
2023/04/07 13:18:25;;;;;;;;;;;;;;;;;;;;;
2023/04/07 13:21:53;;;;;;;;;;;;;;;;;;;;;
2023/04/07 13:25:18;;;;;;;8.10;5.90;;;;;;;5.38;84.52;100739.21;104830;1266;82665;-48
2023/04/07 13:28:23;;;;;;;;;;;;;;;;;;;;;
2023/04/07 13:31:37;;;;;;;;;;;;;;;;;;;;;
2023/04/07 13:35:03;;;;;;;;;;;;;;;;;;;;;
2023/04/07 13:38:44;;;;;;;;;;;;;;;;;;;;;
2023/04/07 13:42:15;;;;;;;7.30;5.60;;;;;;;5.57;85.01;100732.75;104683;1264;83509;-48
2023/04/07 13:45:40;;;;;;;6.90;4.90;;;;;;;5.56;84.77;100732.23;104638;1267;73291;-52
2023/04/07 13:48:55;;;;;;;6.40;5.10;;;;;;;5.54;84.61;100729.16;104684;1267;70210;-48
2023/04/07 13:52:45;;;;;;;5.70;4.20;;;;;;;5.53;84.59;100726.91;104552;1263;69990;-58
2023/04/07 13:56:11;;;;;;;5.30;4.10;;;;;;;5.59;85.03;100726.15;104632;1267;73804;-57
2023/04/07 14:03:36;;;;;;;5.20;4.30;;;;;;;5.71;85.34;100721.50;104662;1267;73405;-55
2023/04/07 14:10:44;;;;;;;6.40;3.90;;;;;;;5.77;85.61;100723.52;104215;1274;69213;-56
2023/04/07 14:14:35;;;;;;;5.50;4.30;;;;;;;5.78;85.42;100722.80;104713;1267;73424;-60
2023/04/07 14:18:08;;;;;;;;;;;;;;;;;;;;;
2023/04/07 14:22:01;;;;;;;6.50;4.60;;;;;;;5.75;85.61;100720.25;104634;1267;73961;-59
2023/04/07 14:25:50;;;;;;;6.20;4.20;;;;;;;5.73;85.43;100720.95;104601;1271;69346;-58
2023/04/07 14:29:40;;;;;;;4.90;4.00;;;;;;;5.66;85.54;100720.87;104560;1267;69260;-61
2023/04/07 14:33:10;;;;;;;;;;;;;;;;;;;;;
2023/04/07 14:36:44;;;;;;;6.20;4.00;;;;;;;5.57;85.71;100715.77;104576;1267;83117;-55
2023/04/07 14:40:33;;;;;;;7.10;4.70;;;;;;;5.53;86.01;100717.36;104620;1264;72779;-58
2023/04/07 14:44:23;;;;;;;7.90;5.70;;;;;;;5.58;86.59;100717.32;104592;1264;69206;-55
2023/04/07 14:48:10;;;;;;;;;;;;;;;;;;;;;
2023/04/07 14:52:02;;;;;;;7.50;4.70;;;;;;;5.72;86.93;100717.52;105082;1256;74244;-58
2023/04/07 14:55:36;;;;;;;4.70;3.40;;;;;;;5.76;86.91;100719.20;104934;1258;82817;-58
2023/04/07 14:59:25;;;;;;;3.90;3.10;;;;;;;5.72;86.79;100722.17;105087;1259;73688;-62
2023/04/07 15:06:58;;;;;;;;;;;;;;;;;;;;;
2023/04/07 15:10:48;;;;;;;4.60;3.90;;;;;;;5.66;86.98;100722.61;105113;1260;74156;-57
2023/04/07 15:14:38;;;;;;;4.80;3.20;;;;;;;5.55;86.77;100720.64;105208;1259;83243;-59
2023/04/07 15:18:27;;;;;;;6.30;3.70;;;;;;;5.51;87.05;100725.54;104934;1258;73871;-57
2023/04/07 15:26:05;;;;;;;6.00;3.90;;;;;;;5.42;87.39;100722.88;105001;1260;69189;-59
2023/04/07 15:29:46;;;;;;;;;;;;;;;;;;;;;
2023/04/07 15:33:45;;;;;;;4.40;3.60;;;;;;;5.36;87.64;100726.23;105081;1260;83134;-56
2023/04/07 15:37:21;;;;;;;;;;;;;;;;;;;;;
2023/04/07 15:44:50;;;;;;;4.30;3.60;;;;;;;5.32;88.16;100726.97;105030;1261;69158;-54
2023/04/07 15:56:09;;;;;;;3.80;3.00;;;;;;;5.37;88.76;100731.41;105044;1256;73674;-59
2023/04/07 15:59:59;;;;;;;5.70;3.60;;;;;;;5.34;88.62;100733.52;105182;1261;69201;-56
2023/04/07 16:03:50;;;;;;;12.40;6.90;;;;;;;5.34;88.90;100734.05;104606;1261;69364;-58
2023/04/07 16:07:39;;;;;;;10.80;7.70;;;;;;;5.36;88.93;100736.28;104780;1260;74237;-58
2023/04/07 16:11:28;;;;;;;6.90;4.30;;;;;;;5.35;88.88;100737.50;104867;1264;83459;-59
2023/04/07 16:15:18;;;;;;;12.60;7.80;;;;;;;5.35;89.10;100734.02;104734;1260;73832;-58
2023/04/07 16:19:25;;;;;;;6.50;4.30;;;;;;;5.40;89.26;100736.07;104793;1262;69472;-55
2023/04/07 16:23:14;;;;;;;6.60;4.00;;;;;;;5.41;89.26;100735.02;105006;1257;69649;-59
2023/04/07 16:27:04;;;;;;;7.00;4.10;;;;;;;5.43;89.33;100735.35;104821;1259;74017;-54
2023/04/07 16:30:54;;;;;;;6.60;3.80;;;;;;;5.44;89.31;100734.64;104781;1261;82594;-55
2023/04/07 16:34:43;;;;;;;7.50;4.80;;;;;;;5.39;89.19;100732.44;104852;1260;73749;-60
2023/04/07 16:38:32;;;;;;;8.10;4.80;;;;;;;5.32;89.52;100732.17;104758;1259;69220;-56
2023/04/07 16:42:20;;;;;;;10.40;6.30;;;;;;;5.31;89.58;100734.42;105148;1255;69180;-58
2023/04/07 16:45:58;;;;;;;8.50;4.90;;;;;;;5.26;89.70;100735.35;105296;1254;74108;-56
2023/04/07 16:53:19;;;;;;;9.30;4.90;;;;;;;5.22;90.01;100739.54;105126;1255;73833;-58
2023/04/07 16:56:58;;;;;;;22.00;14.00;;;;;;;5.22;90.13;100738.33;105042;1258;69088;-55
2023/04/07 17:00:48;;;;;;;13.40;10.70;;;;;;;5.24;90.37;100739.36;105205;1256;69099;-61
2023/04/07 17:08:27;;;;;;;5.70;4.80;;;;;;;5.25;90.39;100741.06;105190;1258;83346;-56
2023/04/07 17:12:16;;;;;;;6.30;4.80;;;;;;;5.24;90.40;100742.98;105043;1254;73398;-61
2023/04/07 17:16:05;;;;;;;6.20;4.30;;;;;;;5.17;90.02;100739.07;105171;1257;69228;-60
2023/04/07 17:19:55;;;;;;;7.00;5.20;;;;;;;5.14;90.33;100741.69;105133;1260;69208;-59
2023/04/07 17:23:12;;;;;;;;;;;;;;;;;;;;;
2023/04/07 17:26:48;;;;;;;12.90;8.10;;;;;;;5.12;90.69;100748.27;105127;1257;83344;-60
2023/04/07 17:30:38;;;;;;;5.80;4.30;;;;;;;5.11;90.73;100753.33;105183;1258;73915;-60
2023/04/07 17:34:28;;;;;;;7.10;4.50;;;;;;;5.10;90.72;100754.91;105143;1254;69165;-59
2023/04/07 17:38:05;;;;;;;;;;;;;;;;;;;;;
2023/04/07 17:41:42;;;;;;;7.10;4.80;;;;;;;5.07;90.87;100758.73;104826;1260;73901;-61
2023/04/07 17:45:21;;;;;;;;;;;;;;;;;;;;;
2023/04/07 17:49:11;;;;;;;6.10;4.60;;;;;;;5.03;90.98;100763.10;104931;1260;73699;-58
2023/04/07 17:53:00;;;;;;;5.80;3.70;;;;;;;5.00;91.09;100766.76;105012;1260;69199;-58
2023/04/07 17:56:49;;;;;;;5.70;4.10;;;;;;;5.00;91.19;100770.41;104927;1258;69157;-59
2023/04/07 18:00:31;;;;;;;;;;;;;;;;;;;;;
2023/04/07 18:04:18;;;;;;;;;;;;;;;;;;;;;
2023/04/07 18:07:54;;;;;;;;;;;;;;;;;;;;;
2023/04/07 18:11:46;;;;;;;11.00;6.90;;;;;;;4.98;91.48;100777.34;104810;1257;69308;-58
2023/04/07 18:15:20;;;;;;;15.10;7.60;;;;;;;4.96;91.45;100780.65;104840;1263;69267;-58
2023/04/07 18:30:34;;;;;;;;;;;;;;;;;;;;;
2023/04/07 18:38:14;;;;;;;7.90;5.50;;;;;;;4.90;92.20;100791.94;105208;1256;74119;-59
2023/04/07 18:42:03;;;;;;;6.40;5.20;;;;;;;4.91;92.37;100794.02;105199;1254;82738;-57
2023/04/07 18:44:55;;;;;;;;;;;;;;;;;;;;;
2023/04/07 18:52:26;;;;;;;8.80;6.90;;;;;;;4.94;92.73;100790.36;105264;1258;69125;-59
2023/04/07 18:56:16;;;;;;;7.60;5.60;;;;;;;4.95;92.98;100789.84;105169;1258;73285;-60
2023/04/07 18:59:53;;;;;;;;;;;;;;;;;;;;;
2023/04/07 19:03:43;;;;;;;6.80;5.10;;;;;;;4.97;92.84;100790.33;105195;1254;73991;-59
2023/04/07 19:11:08;;;;;;;7.90;5.70;;;;;;;4.98;93.11;100786.69;105282;1254;69466;-57
2023/04/07 19:14:48;;;;;;;8.80;6.30;;;;;;;4.98;92.85;100787.21;105211;1253;74304;-58
2023/04/07 19:18:30;;;;;;;;;;;;;;;;;;;;;
2023/04/07 19:22:21;;;;;;;7.50;6.10;;;;;;;4.98;93.21;100787.91;105154;1254;75439;-60
2023/04/07 19:26:10;;;;;;;8.60;6.50;;;;;;;4.96;92.97;100788.09;105233;1254;69424;-58
2023/04/07 19:29:59;;;;;;;8.70;6.60;;;;;;;4.92;93.01;100793.31;105156;1254;69087;-57
2023/04/07 19:33:46;;;;;;;;;;;;;;;;;;;;;
2023/04/07 19:37:27;;;;;;;10.40;7.80;;;;;;;4.82;93.11;100792.88;105315;1256;82554;-59
2023/04/07 19:41:14;;;;;;;;;;;;;;;;;;;;;
2023/04/07 19:44:56;;;;;;;;;;;;;;;;;;;;;
2023/04/07 19:48:47;;;;;;;11.60;8.00;;;;;;;4.84;93.52;100790.77;105191;1258;69084;-59
2023/04/07 19:59:37;;;;;;;;;;;;;;;;;;;;;
2023/04/07 20:07:11;;;;;;;;;;;;;;;;;;;;;